sensor_id;sensor_type;location;lat;lon;timestamp;temperature;humidity
28608;DHT22;15802;45.654;13.804;2022-09-13T00:00:04;18.80;99.90
28608;DHT22;15802;45.654;13.804;2022-09-13T00:02:30;18.80;99.90
28608;DHT22;15802;45.654;13.804;2022-09-13T00:04:55;18.80;99.90
28608;DHT22;15802;45.654;13.804;2022-09-13T00:07:21;18.70;99.90
28608;DHT22;15802;45.654;13.804;2022-09-13T00:09:47;18.70;99.90
28608;DHT22;15802;45.654;13.804;2022-09-13T00:12:12;18.70;99.90
28608;DHT22;15802;45.654;13.804;2022-09-13T00:14:38;18.70;99.90
28608;DHT22;15802;45.654;13.804;2022-09-13T00:17:04;18.60;99.90
28608;DHT22;15802;45.654;13.804;2022-09-13T00:19:29;18.60;99.90
28608;DHT22;15802;45.654;13.804;2022-09-13T00:21:55;18.70;99.90
28608;DHT22;15802;45.654;13.804;2022-09-13T00:24:20;18.60;99.90
28608;DHT22;15802;45.654;13.804;2022-09-13T00:26:46;18.60;99.90
28608;DHT22;15802;45.654;13.804;2022-09-13T00:29:12;18.60;99.90
28608;DHT22;15802;45.654;13.804;2022-09-13T00:31:37;18.60;99.90
28608;DHT22;15802;45.654;13.804;2022-09-13T00:34:03;18.60;99.90
28608;DHT22;15802;45.654;13.804;2022-09-13T00:36:28;18.60;99.90
28608;DHT22;15802;45.654;13.804;2022-09-13T00:38:54;18.60;99.90
28608;DHT22;15802;45.654;13.804;2022-09-13T00:41:20;18.60;99.90
28608;DHT22;15802;45.654;13.804;2022-09-13T00:43:48;18.60;99.90
28608;DHT22;15802;45.654;13.804;2022-09-13T00:46:16;18.50;99.90
28608;DHT22;15802;45.654;13.804;2022-09-13T00:48:43;18.50;99.90
28608;DHT22;15802;45.654;13.804;2022-09-13T00:51:11;18.40;99.90
28608;DHT22;15802;45.654;13.804;2022-09-13T00:53:38;18.40;99.90
28608;DHT22;15802;45.654;13.804;2022-09-13T00:56:08;18.40;99.90
28608;DHT22;15802;45.654;13.804;2022-09-13T00:58:38;18.40;99.90
28608;DHT22;15802;45.654;13.804;2022-09-13T01:01:04;18.40;99.90
28608;DHT22;15802;45.654;13.804;2022-09-13T01:03:33;18.40;99.90
28608;DHT22;15802;45.654;13.804;2022-09-13T01:06:02;18.40;99.90
28608;DHT22;15802;45.654;13.804;2022-09-13T01:08:29;18.40;99.90
28608;DHT22;15802;45.654;13.804;2022-09-13T01:10:55;18.30;99.90
28608;DHT22;15802;45.654;13.804;2022-09-13T01:13:25;18.30;99.90
28608;DHT22;15802;45.654;13.804;2022-09-13T01:15:52;18.20;99.90
28608;DHT22;15802;45.654;13.804;2022-09-13T01:18:18;18.30;99.90
28608;DHT22;15802;45.654;13.804;2022-09-13T01:20:53;18.30;99.90
28608;DHT22;15802;45.654;13.804;2022-09-13T01:26:12;18.20;99.90
28608;DHT22;15802;45.654;13.804;2022-09-13T01:31:35;18.20;99.90
28608;DHT22;15802;45.654;13.804;2022-09-13T01:34:07;18.20;99.90
28608;DHT22;15802;45.654;13.804;2022-09-13T01:36:41;18.20;99.90
28608;DHT22;15802;45.654;13.804;2022-09-13T01:39:13;18.20;99.90
28608;DHT22;15802;45.654;13.804;2022-09-13T01:41:53;18.20;99.90
28608;DHT22;15802;45.654;13.804;2022-09-13T01:50:00;18.20;99.90
28608;DHT22;15802;45.654;13.804;2022-09-13T01:52:48;18.10;99.90
28608;DHT22;15802;45.654;13.804;2022-09-13T01:55:24;18.10;99.90
28608;DHT22;15802;45.654;13.804;2022-09-13T01:57:56;18.10;99.90
28608;DHT22;15802;45.654;13.804;2022-09-13T02:00:25;18.10;99.90
28608;DHT22;15802;45.654;13.804;2022-09-13T02:02:55;18.10;99.90
28608;DHT22;15802;45.654;13.804;2022-09-13T02:05:46;18.10;99.90
28608;DHT22;15802;45.654;13.804;2022-09-13T02:08:17;18.10;99.90
28608;DHT22;15802;45.654;13.804;2022-09-13T02:10:45;18.20;99.90
28608;DHT22;15802;45.654;13.804;2022-09-13T02:13:13;18.20;99.90
28608;DHT22;15802;45.654;13.804;2022-09-13T02:15:43;18.30;99.90
28608;DHT22;15802;45.654;13.804;2022-09-13T02:18:12;18.30;99.90
28608;DHT22;15802;45.654;13.804;2022-09-13T02:20:40;18.20;99.90
28608;DHT22;15802;45.654;13.804;2022-09-13T02:23:09;18.20;99.90
28608;DHT22;15802;45.654;13.804;2022-09-13T02:25:38;18.30;99.90
28608;DHT22;15802;45.654;13.804;2022-09-13T02:28:04;18.30;99.90
28608;DHT22;15802;45.654;13.804;2022-09-13T02:30:32;18.30;99.90
28608;DHT22;15802;45.654;13.804;2022-09-13T02:33:08;18.20;99.90
28608;DHT22;15802;45.654;13.804;2022-09-13T02:35:37;18.20;99.90
28608;DHT22;15802;45.654;13.804;2022-09-13T02:38:07;18.20;99.90
28608;DHT22;15802;45.654;13.804;2022-09-13T02:40:38;18.20;99.90
28608;DHT22;15802;45.654;13.804;2022-09-13T02:43:07;18.20;99.90
28608;DHT22;15802;45.654;13.804;2022-09-13T02:45:40;18.20;99.90
28608;DHT22;15802;45.654;13.804;2022-09-13T02:48:09;18.10;99.90
28608;DHT22;15802;45.654;13.804;2022-09-13T02:50:40;18.10;99.90
28608;DHT22;15802;45.654;13.804;2022-09-13T02:53:13;18.10;99.90
28608;DHT22;15802;45.654;13.804;2022-09-13T02:55:48;18.10;99.90
28608;DHT22;15802;45.654;13.804;2022-09-13T02:58:20;18.10;99.90
28608;DHT22;15802;45.654;13.804;2022-09-13T03:00:49;18.10;99.90
28608;DHT22;15802;45.654;13.804;2022-09-13T03:03:15;18.20;99.90
28608;DHT22;15802;45.654;13.804;2022-09-13T03:05:41;18.20;99.90
28608;DHT22;15802;45.654;13.804;2022-09-13T03:08:08;18.10;99.90
28608;DHT22;15802;45.654;13.804;2022-09-13T03:13:30;18.10;99.90
28608;DHT22;15802;45.654;13.804;2022-09-13T03:21:39;18.10;99.90
28608;DHT22;15802;45.654;13.804;2022-09-13T03:27:02;18.00;99.90
28608;DHT22;15802;45.654;13.804;2022-09-13T03:29:36;17.90;99.90
28608;DHT22;15802;45.654;13.804;2022-09-13T03:32:08;18.00;99.90
28608;DHT22;15802;45.654;13.804;2022-09-13T03:34:55;18.00;99.90
28608;DHT22;15802;45.654;13.804;2022-09-13T03:37:25;18.10;99.90
28608;DHT22;15802;45.654;13.804;2022-09-13T03:39:53;18.10;99.90
28608;DHT22;15802;45.654;13.804;2022-09-13T03:42:22;18.10;99.90
28608;DHT22;15802;45.654;13.804;2022-09-13T03:44:49;18.10;99.90
28608;DHT22;15802;45.654;13.804;2022-09-13T03:47:16;18.00;99.90
28608;DHT22;15802;45.654;13.804;2022-09-13T03:49:43;18.00;99.90
28608;DHT22;15802;45.654;13.804;2022-09-13T03:52:08;18.00;99.90
28608;DHT22;15802;45.654;13.804;2022-09-13T03:54:35;18.00;99.90
28608;DHT22;15802;45.654;13.804;2022-09-13T03:57:18;18.00;99.90
28608;DHT22;15802;45.654;13.804;2022-09-13T03:59:46;18.00;99.90
28608;DHT22;15802;45.654;13.804;2022-09-13T04:02:12;17.90;99.90
28608;DHT22;15802;45.654;13.804;2022-09-13T04:04:39;18.00;99.90
28608;DHT22;15802;45.654;13.804;2022-09-13T04:07:04;17.90;99.90
28608;DHT22;15802;45.654;13.804;2022-09-13T04:09:30;17.90;99.90
28608;DHT22;15802;45.654;13.804;2022-09-13T04:11:56;18.00;99.90
28608;DHT22;15802;45.654;13.804;2022-09-13T04:14:22;18.00;99.90
28608;DHT22;15802;45.654;13.804;2022-09-13T04:16:51;17.90;99.90
28608;DHT22;15802;45.654;13.804;2022-09-13T04:19:17;17.90;99.90
28608;DHT22;15802;45.654;13.804;2022-09-13T04:21:43;18.00;99.90
28608;DHT22;15802;45.654;13.804;2022-09-13T04:24:08;18.00;99.90
28608;DHT22;15802;45.654;13.804;2022-09-13T04:26:34;18.00;99.90
28608;DHT22;15802;45.654;13.804;2022-09-13T04:29:00;18.00;99.90
28608;DHT22;15802;45.654;13.804;2022-09-13T04:31:25;18.00;99.90
28608;DHT22;15802;45.654;13.804;2022-09-13T04:33:51;17.90;99.90
28608;DHT22;15802;45.654;13.804;2022-09-13T04:36:17;17.90;99.90
28608;DHT22;15802;45.654;13.804;2022-09-13T04:38:45;17.90;99.90
28608;DHT22;15802;45.654;13.804;2022-09-13T04:41:11;17.90;99.90
28608;DHT22;15802;45.654;13.804;2022-09-13T04:43:37;18.00;99.90
28608;DHT22;15802;45.654;13.804;2022-09-13T04:46:03;17.90;99.90
28608;DHT22;15802;45.654;13.804;2022-09-13T04:48:29;17.90;99.90
28608;DHT22;15802;45.654;13.804;2022-09-13T04:51:02;17.90;99.90
28608;DHT22;15802;45.654;13.804;2022-09-13T04:53:30;17.90;99.90
28608;DHT22;15802;45.654;13.804;2022-09-13T04:55:59;18.00;99.90
28608;DHT22;15802;45.654;13.804;2022-09-13T04:58:25;17.90;99.90
28608;DHT22;15802;45.654;13.804;2022-09-13T05:00:51;18.00;99.90
28608;DHT22;15802;45.654;13.804;2022-09-13T05:03:21;17.90;99.90
28608;DHT22;15802;45.654;13.804;2022-09-13T05:05:47;17.90;99.90
28608;DHT22;15802;45.654;13.804;2022-09-13T05:08:12;17.90;99.90
28608;DHT22;15802;45.654;13.804;2022-09-13T05:10:38;17.90;99.90
28608;DHT22;15802;45.654;13.804;2022-09-13T05:13:04;17.90;99.90
28608;DHT22;15802;45.654;13.804;2022-09-13T05:15:29;17.90;99.90
28608;DHT22;15802;45.654;13.804;2022-09-13T05:17:55;18.00;99.90
28608;DHT22;15802;45.654;13.804;2022-09-13T05:20:21;18.00;99.90
28608;DHT22;15802;45.654;13.804;2022-09-13T05:22:46;18.10;99.90
28608;DHT22;15802;45.654;13.804;2022-09-13T05:25:12;18.10;99.90
28608;DHT22;15802;45.654;13.804;2022-09-13T05:27:38;18.10;99.90
28608;DHT22;15802;45.654;13.804;2022-09-13T05:30:04;18.10;99.90
28608;DHT22;15802;45.654;13.804;2022-09-13T05:32:30;18.10;99.90
28608;DHT22;15802;45.654;13.804;2022-09-13T05:34:56;18.10;99.90
28608;DHT22;15802;45.654;13.804;2022-09-13T05:37:21;18.20;99.90
28608;DHT22;15802;45.654;13.804;2022-09-13T05:39:47;18.20;99.90
28608;DHT22;15802;45.654;13.804;2022-09-13T05:42:13;18.20;99.90
28608;DHT22;15802;45.654;13.804;2022-09-13T05:44:38;18.30;99.90
28608;DHT22;15802;45.654;13.804;2022-09-13T05:47:04;18.40;99.90
28608;DHT22;15802;45.654;13.804;2022-09-13T05:49:30;18.40;99.90
28608;DHT22;15802;45.654;13.804;2022-09-13T05:51:56;18.40;99.90
28608;DHT22;15802;45.654;13.804;2022-09-13T05:54:24;18.50;99.90
28608;DHT22;15802;45.654;13.804;2022-09-13T05:56:50;18.50;99.90
28608;DHT22;15802;45.654;13.804;2022-09-13T05:59:21;18.50;99.90
28608;DHT22;15802;45.654;13.804;2022-09-13T06:01:47;18.50;99.90
28608;DHT22;15802;45.654;13.804;2022-09-13T06:04:13;18.60;99.90
28608;DHT22;15802;45.654;13.804;2022-09-13T06:06:39;18.70;99.90
28608;DHT22;15802;45.654;13.804;2022-09-13T06:09:04;18.70;99.90
28608;DHT22;15802;45.654;13.804;2022-09-13T06:11:32;18.80;99.90
28608;DHT22;15802;45.654;13.804;2022-09-13T06:13:58;18.90;99.90
28608;DHT22;15802;45.654;13.804;2022-09-13T06:16:24;18.90;99.90
28608;DHT22;15802;45.654;13.804;2022-09-13T06:18:49;19.00;99.90
28608;DHT22;15802;45.654;13.804;2022-09-13T06:21:16;19.20;99.90
28608;DHT22;15802;45.654;13.804;2022-09-13T06:23:43;19.20;99.90
28608;DHT22;15802;45.654;13.804;2022-09-13T06:26:10;19.30;99.90
28608;DHT22;15802;45.654;13.804;2022-09-13T06:28:36;19.40;99.90
28608;DHT22;15802;45.654;13.804;2022-09-13T06:31:10;19.60;99.90
28608;DHT22;15802;45.654;13.804;2022-09-13T06:33:37;19.70;99.90
28608;DHT22;15802;45.654;13.804;2022-09-13T06:36:19;19.80;99.90
28608;DHT22;15802;45.654;13.804;2022-09-13T06:38:45;19.90;99.90
28608;DHT22;15802;45.654;13.804;2022-09-13T06:41:12;20.00;99.90
28608;DHT22;15802;45.654;13.804;2022-09-13T06:43:38;20.10;99.90
28608;DHT22;15802;45.654;13.804;2022-09-13T06:46:06;20.30;99.90
28608;DHT22;15802;45.654;13.804;2022-09-13T06:48:33;20.30;99.90
28608;DHT22;15802;45.654;13.804;2022-09-13T06:51:00;20.40;99.90
28608;DHT22;15802;45.654;13.804;2022-09-13T06:53:26;20.60;99.90
28608;DHT22;15802;45.654;13.804;2022-09-13T06:56:02;20.60;99.90
28608;DHT22;15802;45.654;13.804;2022-09-13T06:58:28;20.70;99.90
28608;DHT22;15802;45.654;13.804;2022-09-13T07:01:03;20.80;99.90
28608;DHT22;15802;45.654;13.804;2022-09-13T07:03:29;20.80;99.90
28608;DHT22;15802;45.654;13.804;2022-09-13T07:05:55;21.00;99.90
28608;DHT22;15802;45.654;13.804;2022-09-13T07:08:21;21.00;99.90
28608;DHT22;15802;45.654;13.804;2022-09-13T07:10:49;21.10;99.90
28608;DHT22;15802;45.654;13.804;2022-09-13T07:13:15;21.20;99.90
28608;DHT22;15802;45.654;13.804;2022-09-13T07:15:41;21.20;99.90
28608;DHT22;15802;45.654;13.804;2022-09-13T07:18:07;21.30;99.90
28608;DHT22;15802;45.654;13.804;2022-09-13T07:20:32;21.40;99.90
28608;DHT22;15802;45.654;13.804;2022-09-13T07:22:58;21.40;99.90
28608;DHT22;15802;45.654;13.804;2022-09-13T07:25:24;21.50;99.90
28608;DHT22;15802;45.654;13.804;2022-09-13T07:27:50;21.60;99.90
28608;DHT22;15802;45.654;13.804;2022-09-13T07:30:15;21.70;99.90
28608;DHT22;15802;45.654;13.804;2022-09-13T07:32:41;21.80;99.90
28608;DHT22;15802;45.654;13.804;2022-09-13T07:35:07;22.00;99.90
28608;DHT22;15802;45.654;13.804;2022-09-13T07:37:36;22.00;99.90
28608;DHT22;15802;45.654;13.804;2022-09-13T07:40:02;22.10;99.90
28608;DHT22;15802;45.654;13.804;2022-09-13T07:42:27;22.10;99.90
28608;DHT22;15802;45.654;13.804;2022-09-13T07:44:53;22.20;99.90
28608;DHT22;15802;45.654;13.804;2022-09-13T07:47:19;22.20;99.90
28608;DHT22;15802;45.654;13.804;2022-09-13T07:49:46;22.20;99.90
28608;DHT22;15802;45.654;13.804;2022-09-13T07:52:12;22.20;99.90
28608;DHT22;15802;45.654;13.804;2022-09-13T07:54:38;22.20;99.90
28608;DHT22;15802;45.654;13.804;2022-09-13T07:57:04;22.30;99.90
28608;DHT22;15802;45.654;13.804;2022-09-13T07:59:29;22.30;99.90
28608;DHT22;15802;45.654;13.804;2022-09-13T08:01:55;22.40;99.90
28608;DHT22;15802;45.654;13.804;2022-09-13T08:04:23;22.40;99.90
28608;DHT22;15802;45.654;13.804;2022-09-13T08:06:49;22.50;99.90
28608;DHT22;15802;45.654;13.804;2022-09-13T08:09:15;22.50;99.90
28608;DHT22;15802;45.654;13.804;2022-09-13T08:11:43;22.60;99.90
28608;DHT22;15802;45.654;13.804;2022-09-13T08:14:09;22.60;99.90
28608;DHT22;15802;45.654;13.804;2022-09-13T08:16:35;22.70;99.90
28608;DHT22;15802;45.654;13.804;2022-09-13T08:19:02;22.80;99.90
28608;DHT22;15802;45.654;13.804;2022-09-13T08:21:36;22.90;99.90
28608;DHT22;15802;45.654;13.804;2022-09-13T08:24:02;22.90;99.90
28608;DHT22;15802;45.654;13.804;2022-09-13T08:26:29;22.90;99.90
28608;DHT22;15802;45.654;13.804;2022-09-13T08:28:56;22.90;99.90
28608;DHT22;15802;45.654;13.804;2022-09-13T08:31:22;22.90;99.90
28608;DHT22;15802;45.654;13.804;2022-09-13T08:33:48;23.00;99.90
28608;DHT22;15802;45.654;13.804;2022-09-13T08:36:14;23.10;99.90
28608;DHT22;15802;45.654;13.804;2022-09-13T08:38:45;23.20;99.90
28608;DHT22;15802;45.654;13.804;2022-09-13T08:41:31;23.30;99.90
28608;DHT22;15802;45.654;13.804;2022-09-13T08:44:02;23.40;99.90
28608;DHT22;15802;45.654;13.804;2022-09-13T08:46:32;23.50;99.90
28608;DHT22;15802;45.654;13.804;2022-09-13T08:49:00;23.50;99.90
28608;DHT22;15802;45.654;13.804;2022-09-13T08:51:31;23.50;99.90
28608;DHT22;15802;45.654;13.804;2022-09-13T08:53:59;23.60;99.90
28608;DHT22;15802;45.654;13.804;2022-09-13T08:56:28;23.60;99.90
28608;DHT22;15802;45.654;13.804;2022-09-13T08:59:02;23.60;99.90
28608;DHT22;15802;45.654;13.804;2022-09-13T09:01:34;23.70;99.90
28608;DHT22;15802;45.654;13.804;2022-09-13T09:04:05;23.80;99.90
28608;DHT22;15802;45.654;13.804;2022-09-13T09:06:33;23.80;99.90
28608;DHT22;15802;45.654;13.804;2022-09-13T09:09:03;23.90;99.90
28608;DHT22;15802;45.654;13.804;2022-09-13T09:11:32;23.90;99.90
28608;DHT22;15802;45.654;13.804;2022-09-13T09:16:54;24.00;99.90
28608;DHT22;15802;45.654;13.804;2022-09-13T09:19:28;24.00;99.90
28608;DHT22;15802;45.654;13.804;2022-09-13T09:22:03;24.00;99.90
28608;DHT22;15802;45.654;13.804;2022-09-13T09:24:29;24.00;99.90
28608;DHT22;15802;45.654;13.804;2022-09-13T09:26:58;24.10;99.90
28608;DHT22;15802;45.654;13.804;2022-09-13T09:29:29;24.20;99.90
28608;DHT22;15802;45.654;13.804;2022-09-13T09:34:56;24.60;99.90
28608;DHT22;15802;45.654;13.804;2022-09-13T09:37:35;24.60;99.90
28608;DHT22;15802;45.654;13.804;2022-09-13T09:40:12;24.80;99.90
28608;DHT22;15802;45.654;13.804;2022-09-13T09:42:40;24.90;99.90
28608;DHT22;15802;45.654;13.804;2022-09-13T09:47:51;24.90;99.90
28608;DHT22;15802;45.654;13.804;2022-09-13T09:50:18;24.90;99.90
28608;DHT22;15802;45.654;13.804;2022-09-13T09:52:49;25.00;99.90
28608;DHT22;15802;45.654;13.804;2022-09-13T09:55:34;25.10;99.90
28608;DHT22;15802;45.654;13.804;2022-09-13T09:58:04;25.10;99.90
28608;DHT22;15802;45.654;13.804;2022-09-13T10:00:32;25.20;99.90
28608;DHT22;15802;45.654;13.804;2022-09-13T10:03:01;25.30;99.90
28608;DHT22;15802;45.654;13.804;2022-09-13T10:05:28;25.20;99.90
28608;DHT22;15802;45.654;13.804;2022-09-13T10:07:57;25.00;99.90
28608;DHT22;15802;45.654;13.804;2022-09-13T10:10:32;24.90;99.90
28608;DHT22;15802;45.654;13.804;2022-09-13T10:13:01;24.90;99.90
28608;DHT22;15802;45.654;13.804;2022-09-13T10:15:27;24.90;99.90
28608;DHT22;15802;45.654;13.804;2022-09-13T10:18:01;25.00;99.90
28608;DHT22;15802;45.654;13.804;2022-09-13T10:20:28;24.90;99.90
28608;DHT22;15802;45.654;13.804;2022-09-13T10:23:10;25.00;99.90
28608;DHT22;15802;45.654;13.804;2022-09-13T10:25:36;25.10;99.90
28608;DHT22;15802;45.654;13.804;2022-09-13T10:28:03;25.10;99.90
28608;DHT22;15802;45.654;13.804;2022-09-13T10:30:34;25.20;99.90
28608;DHT22;15802;45.654;13.804;2022-09-13T10:33:01;25.10;99.90
28608;DHT22;15802;45.654;13.804;2022-09-13T10:35:27;25.20;99.90
28608;DHT22;15802;45.654;13.804;2022-09-13T10:37:53;25.30;99.90
28608;DHT22;15802;45.654;13.804;2022-09-13T10:40:35;25.40;99.90
28608;DHT22;15802;45.654;13.804;2022-09-13T10:43:04;25.50;99.90
28608;DHT22;15802;45.654;13.804;2022-09-13T10:45:32;25.50;99.90
28608;DHT22;15802;45.654;13.804;2022-09-13T10:48:03;25.60;99.90
28608;DHT22;15802;45.654;13.804;2022-09-13T10:50:29;25.70;99.90
28608;DHT22;15802;45.654;13.804;2022-09-13T10:52:57;25.80;99.90
28608;DHT22;15802;45.654;13.804;2022-09-13T10:55:26;25.80;99.90
28608;DHT22;15802;45.654;13.804;2022-09-13T10:58:10;25.70;99.90
28608;DHT22;15802;45.654;13.804;2022-09-13T11:00:39;25.70;99.90
28608;DHT22;15802;45.654;13.804;2022-09-13T11:03:22;25.80;99.90
28608;DHT22;15802;45.654;13.804;2022-09-13T11:08:40;26.00;99.90
28608;DHT22;15802;45.654;13.804;2022-09-13T11:11:21;26.20;99.90
28608;DHT22;15802;45.654;13.804;2022-09-13T11:16:46;25.90;99.90
28608;DHT22;15802;45.654;13.804;2022-09-13T11:19:26;26.00;99.90
28608;DHT22;15802;45.654;13.804;2022-09-13T11:25:02;25.90;99.90
28608;DHT22;15802;45.654;13.804;2022-09-13T11:30:16;26.10;99.90
28608;DHT22;15802;45.654;13.804;2022-09-13T11:35:33;26.20;99.90
28608;DHT22;15802;45.654;13.804;2022-09-13T11:40:59;26.10;99.90
28608;DHT22;15802;45.654;13.804;2022-09-13T11:49:05;26.20;99.90
28608;DHT22;15802;45.654;13.804;2022-09-13T11:51:40;26.00;99.90
28608;DHT22;15802;45.654;13.804;2022-09-13T11:54:13;26.00;99.90
28608;DHT22;15802;45.654;13.804;2022-09-13T11:56:43;25.90;99.90
28608;DHT22;15802;45.654;13.804;2022-09-13T11:59:17;25.70;99.90
28608;DHT22;15802;45.654;13.804;2022-09-13T12:01:45;25.60;99.90
28608;DHT22;15802;45.654;13.804;2022-09-13T12:04:21;25.60;99.90
28608;DHT22;15802;45.654;13.804;2022-09-13T12:06:53;25.50;99.90
28608;DHT22;15802;45.654;13.804;2022-09-13T12:09:21;25.30;99.90
28608;DHT22;15802;45.654;13.804;2022-09-13T12:11:50;25.40;99.90
28608;DHT22;15802;45.654;13.804;2022-09-13T12:14:18;25.40;99.90
28608;DHT22;15802;45.654;13.804;2022-09-13T12:16:46;25.50;99.90
28608;DHT22;15802;45.654;13.804;2022-09-13T12:19:17;25.50;99.90
28608;DHT22;15802;45.654;13.804;2022-09-13T12:21:43;25.50;99.90
28608;DHT22;15802;45.654;13.804;2022-09-13T12:24:19;25.20;99.90
28608;DHT22;15802;45.654;13.804;2022-09-13T12:26:49;25.30;99.90
28608;DHT22;15802;45.654;13.804;2022-09-13T12:29:18;25.40;99.90
28608;DHT22;15802;45.654;13.804;2022-09-13T12:31:47;25.60;99.90
28608;DHT22;15802;45.654;13.804;2022-09-13T12:34:22;25.60;99.90
28608;DHT22;15802;45.654;13.804;2022-09-13T12:39:38;25.50;99.90
28608;DHT22;15802;45.654;13.804;2022-09-13T12:44:53;25.70;99.90
28608;DHT22;15802;45.654;13.804;2022-09-13T12:50:28;25.20;99.90
28608;DHT22;15802;45.654;13.804;2022-09-13T12:55:52;25.40;99.90
28608;DHT22;15802;45.654;13.804;2022-09-13T12:58:28;25.70;99.90
28608;DHT22;15802;45.654;13.804;2022-09-13T13:01:01;25.70;99.90
28608;DHT22;15802;45.654;13.804;2022-09-13T13:03:31;25.70;99.90
28608;DHT22;15802;45.654;13.804;2022-09-13T13:06:07;25.80;99.90
28608;DHT22;15802;45.654;13.804;2022-09-13T13:08:34;25.70;99.90
28608;DHT22;15802;45.654;13.804;2022-09-13T13:11:01;25.70;99.90
28608;DHT22;15802;45.654;13.804;2022-09-13T13:13:36;25.70;99.90
28608;DHT22;15802;45.654;13.804;2022-09-13T13:16:05;25.80;99.90
28608;DHT22;15802;45.654;13.804;2022-09-13T13:18:48;25.90;99.90
28608;DHT22;15802;45.654;13.804;2022-09-13T13:21:30;25.90;99.90
28608;DHT22;15802;45.654;13.804;2022-09-13T13:26:42;25.80;99.90
28608;DHT22;15802;45.654;13.804;2022-09-13T13:29:11;25.80;99.90
28608;DHT22;15802;45.654;13.804;2022-09-13T13:31:43;25.70;99.90
28608;DHT22;15802;45.654;13.804;2022-09-13T13:37:00;25.70;99.90
28608;DHT22;15802;45.654;13.804;2022-09-13T13:39:43;25.80;99.90
28608;DHT22;15802;45.654;13.804;2022-09-13T13:42:26;25.90;99.90
28608;DHT22;15802;45.654;13.804;2022-09-13T13:44:55;26.10;99.90
28608;DHT22;15802;45.654;13.804;2022-09-13T13:50:12;26.30;99.90
28608;DHT22;15802;45.654;13.804;2022-09-13T13:52:40;26.20;99.90
28608;DHT22;15802;45.654;13.804;2022-09-13T13:55:26;26.00;99.90
28608;DHT22;15802;45.654;13.804;2022-09-13T13:57:58;25.90;99.90
28608;DHT22;15802;45.654;13.804;2022-09-13T14:00:26;25.80;99.90
28608;DHT22;15802;45.654;13.804;2022-09-13T14:11:09;25.60;99.90
28608;DHT22;15802;45.654;13.804;2022-09-13T14:13:41;25.70;99.90
28608;DHT22;15802;45.654;13.804;2022-09-13T14:16:15;25.70;99.90
28608;DHT22;15802;45.654;13.804;2022-09-13T14:18:59;25.60;99.90
28608;DHT22;15802;45.654;13.804;2022-09-13T14:21:31;25.50;99.90
28608;DHT22;15802;45.654;13.804;2022-09-13T14:24:18;25.50;99.90
28608;DHT22;15802;45.654;13.804;2022-09-13T14:26:46;25.60;99.90
28608;DHT22;15802;45.654;13.804;2022-09-13T14:29:15;25.40;99.90
28608;DHT22;15802;45.654;13.804;2022-09-13T14:31:43;25.30;99.90
28608;DHT22;15802;45.654;13.804;2022-09-13T14:34:18;25.30;99.90
28608;DHT22;15802;45.654;13.804;2022-09-13T14:36:53;25.40;99.90
28608;DHT22;15802;45.654;13.804;2022-09-13T14:39:19;24.90;99.90
28608;DHT22;15802;45.654;13.804;2022-09-13T14:41:45;24.90;99.90
28608;DHT22;15802;45.654;13.804;2022-09-13T14:44:16;24.80;99.90
28608;DHT22;15802;45.654;13.804;2022-09-13T14:46:43;24.90;99.90
28608;DHT22;15802;45.654;13.804;2022-09-13T14:49:12;24.90;99.90
28608;DHT22;15802;45.654;13.804;2022-09-13T14:51:55;25.00;99.90
28608;DHT22;15802;45.654;13.804;2022-09-13T14:54:27;25.00;99.90
28608;DHT22;15802;45.654;13.804;2022-09-13T14:56:56;25.00;99.90
28608;DHT22;15802;45.654;13.804;2022-09-13T14:59:31;25.00;99.90
28608;DHT22;15802;45.654;13.804;2022-09-13T15:01:58;25.10;99.90
28608;DHT22;15802;45.654;13.804;2022-09-13T15:04:29;25.10;99.90
28608;DHT22;15802;45.654;13.804;2022-09-13T15:07:05;25.10;99.90
28608;DHT22;15802;45.654;13.804;2022-09-13T15:09:31;25.10;99.90
28608;DHT22;15802;45.654;13.804;2022-09-13T15:11:59;25.00;99.90
28608;DHT22;15802;45.654;13.804;2022-09-13T15:14:26;25.00;99.90
28608;DHT22;15802;45.654;13.804;2022-09-13T15:16:57;24.80;99.90
28608;DHT22;15802;45.654;13.804;2022-09-13T15:19:26;24.70;99.90
28608;DHT22;15802;45.654;13.804;2022-09-13T15:21:52;24.70;99.90
28608;DHT22;15802;45.654;13.804;2022-09-13T15:24:20;24.70;99.90
28608;DHT22;15802;45.654;13.804;2022-09-13T15:26:46;24.70;99.90
28608;DHT22;15802;45.654;13.804;2022-09-13T15:29:16;24.80;99.90
28608;DHT22;15802;45.654;13.804;2022-09-13T15:31:42;24.80;99.90
28608;DHT22;15802;45.654;13.804;2022-09-13T15:34:10;24.80;99.90
28608;DHT22;15802;45.654;13.804;2022-09-13T15:36:36;24.80;99.90
28608;DHT22;15802;45.654;13.804;2022-09-13T15:39:12;24.70;99.90
28608;DHT22;15802;45.654;13.804;2022-09-13T15:41:50;24.70;99.90
28608;DHT22;15802;45.654;13.804;2022-09-13T15:44:16;24.70;99.90
28608;DHT22;15802;45.654;13.804;2022-09-13T15:46:46;24.70;99.90
28608;DHT22;15802;45.654;13.804;2022-09-13T15:49:16;24.80;99.90
28608;DHT22;15802;45.654;13.804;2022-09-13T15:51:42;24.80;99.90
28608;DHT22;15802;45.654;13.804;2022-09-13T15:54:10;24.80;99.90
28608;DHT22;15802;45.654;13.804;2022-09-13T15:56:37;24.80;99.90
28608;DHT22;15802;45.654;13.804;2022-09-13T15:59:05;24.80;99.90
28608;DHT22;15802;45.654;13.804;2022-09-13T16:01:30;24.70;99.90
28608;DHT22;15802;45.654;13.804;2022-09-13T16:03:56;24.60;99.90
28608;DHT22;15802;45.654;13.804;2022-09-13T16:06:23;24.50;99.90
28608;DHT22;15802;45.654;13.804;2022-09-13T16:08:48;24.40;99.90
28608;DHT22;15802;45.654;13.804;2022-09-13T16:11:14;24.30;99.90
28608;DHT22;15802;45.654;13.804;2022-09-13T16:13:40;24.30;99.90
28608;DHT22;15802;45.654;13.804;2022-09-13T16:16:05;24.20;99.90
28608;DHT22;15802;45.654;13.804;2022-09-13T16:18:31;24.10;99.90
28608;DHT22;15802;45.654;13.804;2022-09-13T16:20:57;24.10;99.90
28608;DHT22;15802;45.654;13.804;2022-09-13T16:23:22;24.00;99.90
28608;DHT22;15802;45.654;13.804;2022-09-13T16:25:50;24.00;99.90
28608;DHT22;15802;45.654;13.804;2022-09-13T16:28:17;23.90;99.90
28608;DHT22;15802;45.654;13.804;2022-09-13T16:30:46;23.80;99.90
28608;DHT22;15802;45.654;13.804;2022-09-13T16:33:11;23.80;99.90
28608;DHT22;15802;45.654;13.804;2022-09-13T16:35:37;23.60;99.90
28608;DHT22;15802;45.654;13.804;2022-09-13T16:38:03;23.60;99.90
28608;DHT22;15802;45.654;13.804;2022-09-13T16:40:28;23.50;99.90
28608;DHT22;15802;45.654;13.804;2022-09-13T16:42:54;23.50;99.90
28608;DHT22;15802;45.654;13.804;2022-09-13T16:45:20;23.50;99.90
28608;DHT22;15802;45.654;13.804;2022-09-13T16:47:46;23.40;99.90